Time;durP1;ratioP1;P1;durP2;ratioP2;P2;SDS_P1;SDS_P2;PMS_P1;PMS_P2;Temp;Humidity;BMP_temperature;BMP_pressure;BME280_temperature;BME280_humidity;BME280_pressure;Samples;Min_cycle;Max_cycle;Signal;HPM_P1;HPM_P2
2023/06/08 00:00:41;;;;;;;19.55;13.80;;;;;;;;;;5000807;28;21171;-76
2023/06/08 00:03:07;;;;;;;18.38;13.15;;;;;;;;;;4992604;28;20037;-76
2023/06/08 00:05:43;;;;;;;18.38;14.77;;;;;;;;;;5003538;28;20091;-76
2023/06/08 00:08:09;;;;;;;20.67;13.32;;;;;;;;;;5003174;28;20030;-76
2023/06/08 00:10:34;;;;;;;20.35;13.18;;;;;;;;;;5003160;28;20037;-76
2023/06/08 00:13:00;;;;;;;17.23;12.98;;;;;;;;;;5003247;28;20034;-77
2023/06/08 00:15:26;;;;;;;15.82;13.25;;;;;;;;;;5003525;28;20029;-75
2023/06/08 00:17:52;;;;;;;15.93;13.77;;;;;;;;;;4994659;28;20030;-75
2023/06/08 00:20:18;;;;;;;15.93;12.20;;;;;;;;;;4985292;28;20502;-77
2023/06/08 00:22:47;;;;;;;13.70;12.30;;;;;;;;;;4984938;28;20025;-78
2023/06/08 00:25:13;;;;;;;18.75;12.05;;;;;;;;;;5002998;28;20449;-76
2023/06/08 00:27:38;;;;;;;12.77;11.50;;;;;;;;;;5003130;28;20120;-75
2023/06/08 00:30:04;;;;;;;14.63;12.38;;;;;;;;;;5003386;28;20132;-75
2023/06/08 00:32:30;;;;;;;13.80;11.70;;;;;;;;;;5003584;28;20507;-76
2023/06/08 00:34:55;;;;;;;14.77;11.02;;;;;;;;;;5003712;28;20089;-77
2023/06/08 00:37:20;;;;;;;13.10;11.80;;;;;;;;;;5003447;28;20022;-76
2023/06/08 00:39:46;;;;;;;16.45;11.88;;;;;;;;;;5003175;28;20034;-75
2023/06/08 00:42:11;;;;;;;16.33;12.38;;;;;;;;;;5003429;28;20430;-77
2023/06/08 00:44:36;;;;;;;17.30;12.73;;;;;;;;;;4988501;28;20037;-75
2023/06/08 00:47:02;;;;;;;14.60;12.27;;;;;;;;;;5000129;28;20026;-75
2023/06/08 00:49:28;;;;;;;16.90;11.65;;;;;;;;;;5002786;28;20018;-75
2023/06/08 00:51:54;;;;;;;13.98;12.45;;;;;;;;;;5002392;28;20444;-74
2023/06/08 00:54:19;;;;;;;12.70;11.45;;;;;;;;;;5002552;28;20478;-75
2023/06/08 00:56:48;;;;;;;13.95;12.00;;;;;;;;;;5002180;28;20136;-75
2023/06/08 00:59:14;;;;;;;12.93;11.27;;;;;;;;;;5002334;28;20117;-75
2023/06/08 01:01:40;;;;;;;14.70;11.02;;;;;;;;;;5001895;28;20164;-76
2023/06/08 01:04:06;;;;;;;12.43;11.25;;;;;;;;;;4983660;28;20041;-76
2023/06/08 01:06:32;;;;;;;15.00;11.65;;;;;;;;;;4996409;28;20021;-76
2023/06/08 01:09:18;;;;;;;14.93;12.65;;;;;;;;;;5002210;28;20017;-75
2023/06/08 01:11:55;;;;;;;15.23;12.88;;;;;;;;;;5000016;28;20049;-77
2023/06/08 01:14:26;;;;;;;15.55;13.27;;;;;;;;;;5002103;28;20025;-76
2023/06/08 01:16:54;;;;;;;13.60;10.75;;;;;;;;;;5002817;28;20444;-75
2023/06/08 01:19:38;;;;;;;13.13;10.45;;;;;;;;;;5002553;28;20029;-75
2023/06/08 01:22:19;;;;;;;11.73;9.98;;;;;;;;;;5002137;28;20030;-78
2023/06/08 01:24:50;;;;;;;11.85;10.65;;;;;;;;;;5002653;28;20083;-76
2023/06/08 01:27:17;;;;;;;14.60;10.95;;;;;;;;;;5002353;28;20429;-75
2023/06/08 01:29:44;;;;;;;12.55;10.70;;;;;;;;;;5004446;28;20113;-75
2023/06/08 01:32:10;;;;;;;23.23;16.50;;;;;;;;;;5005673;28;20056;-76
2023/06/08 01:34:35;;;;;;;23.13;15.68;;;;;;;;;;5005336;28;20813;-75
2023/06/08 01:37:11;;;;;;;20.98;15.05;;;;;;;;;;5006328;28;20334;-74
2023/06/08 01:39:36;;;;;;;20.27;14.60;;;;;;;;;;5006283;28;20022;-74
2023/06/08 01:42:05;;;;;;;24.48;14.63;;;;;;;;;;5006466;28;20327;-75
2023/06/08 01:44:35;;;;;;;18.17;14.30;;;;;;;;;;5005763;28;20116;-75
2023/06/08 01:47:01;;;;;;;19.25;13.85;;;;;;;;;;5006236;28;20047;-76
2023/06/08 01:49:28;;;;;;;25.13;16.02;;;;;;;;;;4996179;28;20034;-78
2023/06/08 01:51:54;;;;;;;19.98;16.42;;;;;;;;;;5002904;28;20591;-76
2023/06/08 01:54:21;;;;;;;18.30;13.77;;;;;;;;;;5005590;28;20113;-78
2023/06/08 01:56:46;;;;;;;15.25;13.25;;;;;;;;;;5005112;28;20050;-78
2023/06/08 01:59:12;;;;;;;15.80;13.07;;;;;;;;;;4995735;28;20030;-75
2023/06/08 02:01:37;;;;;;;14.80;13.20;;;;;;;;;;5001569;28;20045;-76
2023/06/08 02:04:03;;;;;;;13.80;12.40;;;;;;;;;;5006352;28;20040;-75
2023/06/08 02:06:28;;;;;;;17.92;13.77;;;;;;;;;;4989255;28;20392;-75
2023/06/08 02:08:54;;;;;;;16.08;14.43;;;;;;;;;;4997859;28;20030;-75
2023/06/08 02:11:19;;;;;;;16.65;11.40;;;;;;;;;;4997277;28;20030;-76
2023/06/08 02:13:44;;;;;;;11.40;9.82;;;;;;;;;;5005645;28;20327;-75
2023/06/08 02:16:10;;;;;;;13.25;10.32;;;;;;;;;;5005674;28;20026;-76
2023/06/08 02:18:40;;;;;;;11.20;9.73;;;;;;;;;;5000716;28;20505;-75
2023/06/08 02:21:05;;;;;;;;;;;;;;;;;;4997286;28;20049;-76
2023/06/08 02:23:30;;;;;;;13.77;10.10;;;;;;;;;;5005817;28;20297;-76
2023/06/08 02:25:56;;;;;;;13.52;11.70;;;;;;;;;;5006047;28;20021;-76
2023/06/08 02:28:21;;;;;;;21.50;14.85;;;;;;;;;;5005292;28;20032;-76
2023/06/08 02:30:47;;;;;;;23.02;13.52;;;;;;;;;;5004706;28;20034;-76
2023/06/08 02:33:13;;;;;;;21.45;15.43;;;;;;;;;;5003546;28;20030;-77
2023/06/08 02:35:39;;;;;;;17.52;15.73;;;;;;;;;;4992804;28;20026;-76
2023/06/08 02:38:04;;;;;;;17.20;15.40;;;;;;;;;;5002266;28;20029;-77
2023/06/08 02:40:30;;;;;;;14.30;12.38;;;;;;;;;;4994029;28;20030;-77
2023/06/08 02:42:55;;;;;;;18.02;10.15;;;;;;;;;;4988563;28;20030;-76
2023/06/08 02:45:21;;;;;;;10.75;9.48;;;;;;;;;;4986244;28;20023;-75
2023/06/08 02:47:46;;;;;;;14.68;10.23;;;;;;;;;;4999977;28;20464;-76
2023/06/08 02:50:11;;;;;;;9.57;8.50;;;;;;;;;;5004513;28;20045;-75
2023/06/08 02:52:37;;;;;;;15.85;9.43;;;;;;;;;;5004303;28;20041;-76
2023/06/08 02:55:03;;;;;;;14.68;9.85;;;;;;;;;;4990150;28;20022;-77
2023/06/08 02:57:28;;;;;;;13.35;10.65;;;;;;;;;;5002890;28;20049;-75
2023/06/08 02:59:54;;;;;;;14.40;12.65;;;;;;;;;;5004781;28;20081;-78
2023/06/08 03:02:19;;;;;;;15.77;14.13;;;;;;;;;;5004627;28;20405;-77
2023/06/08 03:04:45;;;;;;;20.83;15.23;;;;;;;;;;5003915;28;20361;-78
2023/06/08 03:07:15;;;;;;;17.45;15.60;;;;;;;;;;5004960;28;20437;-75
2023/06/08 03:09:40;;;;;;;20.90;16.10;;;;;;;;;;4991083;28;20029;-76
2023/06/08 03:12:06;;;;;;;18.42;14.60;;;;;;;;;;5002264;28;20040;-75
2023/06/08 03:14:31;;;;;;;17.65;12.30;;;;;;;;;;5000117;28;20023;-74
2023/06/08 03:17:03;;;;;;;18.40;14.30;;;;;;;;;;4994402;28;20056;-75
2023/06/08 03:19:32;;;;;;;16.88;13.23;;;;;;;;;;5005347;28;20040;-74
2023/06/08 03:22:02;;;;;;;16.02;13.90;;;;;;;;;;5004031;28;20034;-75
2023/06/08 03:24:31;;;;;;;16.17;14.13;;;;;;;;;;4997615;28;20708;-74
2023/06/08 03:26:58;;;;;;;18.42;14.00;;;;;;;;;;4996985;28;20052;-75
2023/06/08 03:29:24;;;;;;;18.05;13.77;;;;;;;;;;5003814;28;20041;-74
2023/06/08 03:31:49;;;;;;;17.98;13.50;;;;;;;;;;5003973;28;20025;-73
2023/06/08 03:34:16;;;;;;;20.98;15.95;;;;;;;;;;5004239;28;20029;-75
2023/06/08 03:36:43;;;;;;;18.67;14.00;;;;;;;;;;4993847;28;20029;-75
2023/06/08 03:39:08;;;;;;;18.38;14.23;;;;;;;;;;5001233;28;20557;-76
2023/06/08 03:41:33;;;;;;;26.60;21.80;;;;;;;;;;5018954;28;20165;-75
2023/06/08 03:43:59;;;;;;;28.80;20.50;;;;;;;;;;5003378;28;20025;-75
2023/06/08 03:46:25;;;;;;;20.13;16.08;;;;;;;;;;5003884;28;20045;-75
2023/06/08 03:48:50;;;;;;;12.52;10.85;;;;;;;;;;5004120;28;20174;-75
2023/06/08 03:51:17;;;;;;;10.63;9.05;;;;;;;;;;5003184;28;20064;-74
2023/06/08 03:53:43;;;;;;;12.07;8.52;;;;;;;;;;5003913;28;20041;-75
2023/06/08 03:56:08;;;;;;;10.88;9.80;;;;;;;;;;5001355;28;20033;-74
2023/06/08 03:58:34;;;;;;;13.93;10.48;;;;;;;;;;5003229;28;20079;-78
2023/06/08 04:00:59;;;;;;;19.27;10.68;;;;;;;;;;5001460;28;20133;-73
2023/06/08 04:03:25;;;;;;;19.02;12.60;;;;;;;;;;4987169;28;20029;-73
2023/06/08 04:05:51;;;;;;;14.73;12.80;;;;;;;;;;4989256;28;20022;-74
2023/06/08 04:08:17;;;;;;;12.80;11.52;;;;;;;;;;4989304;28;20042;-78
2023/06/08 04:10:43;;;;;;;15.68;11.68;;;;;;;;;;4988481;28;20061;-75
2023/06/08 04:13:08;;;;;;;15.63;13.73;;;;;;;;;;4988518;28;20528;-74
2023/06/08 04:15:33;;;;;;;14.02;12.50;;;;;;;;;;4988408;28;20109;-74
2023/06/08 04:18:01;;;;;;;16.63;12.93;;;;;;;;;;5002053;28;20041;-75
2023/06/08 04:20:27;;;;;;;14.90;13.40;;;;;;;;;;5001512;28;20116;-75
2023/06/08 04:22:52;;;;;;;14.60;12.80;;;;;;;;;;4987563;28;20056;-74
2023/06/08 04:25:19;;;;;;;16.23;13.40;;;;;;;;;;4985992;28;20029;-75
2023/06/08 04:27:45;;;;;;;18.95;14.05;;;;;;;;;;4987694;28;20036;-75
2023/06/08 04:30:11;;;;;;;19.80;15.20;;;;;;;;;;4989102;28;20091;-75
2023/06/08 04:32:36;;;;;;;15.30;13.55;;;;;;;;;;4985246;28;20392;-75
2023/06/08 04:35:03;;;;;;;15.77;13.70;;;;;;;;;;5002744;28;20017;-76
2023/06/08 04:37:28;;;;;;;15.32;12.05;;;;;;;;;;5001847;28;20468;-74
2023/06/08 04:39:56;;;;;;;13.93;12.48;;;;;;;;;;5002290;28;20841;-74
2023/06/08 04:42:23;;;;;;;15.30;12.10;;;;;;;;;;5001828;28;20014;-75
2023/06/08 04:44:50;;;;;;;16.42;11.82;;;;;;;;;;5001852;28;20029;-75
2023/06/08 04:47:16;;;;;;;16.05;12.48;;;;;;;;;;5002309;28;20057;-75
2023/06/08 04:49:42;;;;;;;14.63;12.90;;;;;;;;;;5002260;28;20125;-76
2023/06/08 04:52:09;;;;;;;15.85;11.27;;;;;;;;;;5001232;28;20403;-75
2023/06/08 04:54:36;;;;;;;13.65;12.25;;;;;;;;;;5002945;28;20028;-74
2023/06/08 04:57:03;;;;;;;15.65;13.40;;;;;;;;;;4990605;28;20050;-76
2023/06/08 04:59:29;;;;;;;15.15;13.13;;;;;;;;;;4981203;28;20133;-76
2023/06/08 05:01:55;;;;;;;14.15;12.73;;;;;;;;;;4986135;28;20026;-75
2023/06/08 05:04:20;;;;;;;14.00;12.60;;;;;;;;;;4990567;28;20461;-75
2023/06/08 05:06:46;;;;;;;12.80;11.52;;;;;;;;;;5002171;28;20429;-75
2023/06/08 05:09:12;;;;;;;14.23;12.23;;;;;;;;;;5002425;28;20032;-74
2023/06/08 05:11:37;;;;;;;14.02;11.63;;;;;;;;;;5002564;28;20025;-74
2023/06/08 05:14:03;;;;;;;17.42;13.90;;;;;;;;;;5002575;28;20026;-75
2023/06/08 05:16:28;;;;;;;18.75;12.13;;;;;;;;;;5002074;28;20436;-75
2023/06/08 05:18:54;;;;;;;15.70;11.77;;;;;;;;;;5002212;28;20033;-76
2023/06/08 05:21:19;;;;;;;14.50;13.00;;;;;;;;;;5001740;28;20126;-75
2023/06/08 05:23:44;;;;;;;16.55;14.93;;;;;;;;;;5001781;28;20056;-75
2023/06/08 05:26:10;;;;;;;14.48;12.98;;;;;;;;;;5002213;28;20096;-75
2023/06/08 05:28:35;;;;;;;15.93;13.77;;;;;;;;;;5001549;28;20018;-75
2023/06/08 05:31:01;;;;;;;13.65;11.95;;;;;;;;;;4994337;28;20076;-77
2023/06/08 05:33:26;;;;;;;13.00;11.38;;;;;;;;;;4993034;28;20456;-75
2023/06/08 05:35:51;;;;;;;15.50;10.95;;;;;;;;;;5001502;28;20022;-75
2023/06/08 05:38:19;;;;;;;12.05;10.32;;;;;;;;;;5001439;28;20030;-76
2023/06/08 05:40:44;;;;;;;11.38;10.05;;;;;;;;;;5000652;28;20038;-75
2023/06/08 05:43:10;;;;;;;11.65;10.38;;;;;;;;;;5001231;28;20435;-75
2023/06/08 05:45:35;;;;;;;11.30;10.18;;;;;;;;;;5001886;28;20433;-75
2023/06/08 05:48:00;;;;;;;12.77;11.00;;;;;;;;;;4985730;28;20022;-75
2023/06/08 05:50:26;;;;;;;12.18;9.43;;;;;;;;;;5000633;28;20034;-75
2023/06/08 05:52:54;;;;;;;11.40;9.70;;;;;;;;;;5001415;28;20044;-75
2023/06/08 05:55:20;;;;;;;14.77;10.35;;;;;;;;;;5000455;28;20381;-74
2023/06/08 05:57:45;;;;;;;9.73;8.63;;;;;;;;;;5000872;28;20061;-76
2023/06/08 06:00:12;;;;;;;10.13;9.00;;;;;;;;;;5000054;28;20022;-76
2023/06/08 06:02:37;;;;;;;10.98;8.57;;;;;;;;;;4991268;28;20369;-75
2023/06/08 06:05:03;;;;;;;11.75;8.88;;;;;;;;;;4987492;28;20026;-75
2023/06/08 06:07:28;;;;;;;9.75;8.85;;;;;;;;;;5000817;28;20350;-77
2023/06/08 06:09:53;;;;;;;14.00;8.75;;;;;;;;;;4999885;28;20088;-75
2023/06/08 06:12:19;;;;;;;9.48;8.57;;;;;;;;;;5000677;28;20034;-75
2023/06/08 06:14:44;;;;;;;11.23;9.23;;;;;;;;;;5000974;28;20100;-75
2023/06/08 06:17:11;;;;;;;9.05;8.07;;;;;;;;;;5004678;28;20112;-75
2023/06/08 06:19:37;;;;;;;10.32;8.90;;;;;;;;;;4993383;28;20453;-76
2023/06/08 06:22:06;;;;;;;11.10;7.97;;;;;;;;;;4986051;28;20032;-75
2023/06/08 06:24:32;;;;;;;9.70;8.07;;;;;;;;;;4986628;28;20021;-76
2023/06/08 06:26:58;;;;;;;8.65;7.88;;;;;;;;;;4986245;28;20120;-75
2023/06/08 06:29:24;;;;;;;9.73;7.90;;;;;;;;;;4984373;28;20080;-75
2023/06/08 06:31:49;;;;;;;9.77;7.88;;;;;;;;;;4984148;28;20341;-74
2023/06/08 06:34:15;;;;;;;10.15;7.57;;;;;;;;;;4991385;28;20034;-75
2023/06/08 06:36:40;;;;;;;9.65;7.88;;;;;;;;;;4987178;28;20026;-75
2023/06/08 06:39:06;;;;;;;8.07;7.32;;;;;;;;;;4987137;28;20076;-75
2023/06/08 06:41:31;;;;;;;9.05;8.02;;;;;;;;;;4985322;28;20345;-74
2023/06/08 06:43:57;;;;;;;9.63;8.48;;;;;;;;;;4993641;28;20037;-75
2023/06/08 06:46:22;;;;;;;8.93;7.57;;;;;;;;;;4992498;28;20132;-75
2023/06/08 06:48:47;;;;;;;9.27;7.72;;;;;;;;;;4984487;28;20032;-74
2023/06/08 06:51:13;;;;;;;10.02;7.88;;;;;;;;;;4988856;28;20044;-74
2023/06/08 06:53:38;;;;;;;9.75;7.07;;;;;;;;;;4984193;28;20065;-75
2023/06/08 06:56:04;;;;;;;10.82;8.00;;;;;;;;;;4989354;28;20053;-75
2023/06/08 06:58:29;;;;;;;10.27;8.05;;;;;;;;;;4984847;28;20508;-74
2023/06/08 07:00:55;;;;;;;13.23;8.40;;;;;;;;;;4985092;28;20072;-76
2023/06/08 07:03:21;;;;;;;10.38;8.80;;;;;;;;;;4986834;28;20030;-74
2023/06/08 07:05:47;;;;;;;11.30;8.38;;;;;;;;;;4986296;28;20036;-74
2023/06/08 07:08:12;;;;;;;8.68;7.78;;;;;;;;;;4984785;28;20029;-73
2023/06/08 07:10:38;;;;;;;16.83;8.70;;;;;;;;;;4982504;28;20104;-74
2023/06/08 07:13:03;;;;;;;12.23;8.68;;;;;;;;;;4983691;28;20441;-74
2023/06/08 07:15:28;;;;;;;8.90;7.60;;;;;;;;;;4985634;28;20370;-76
2023/06/08 07:17:54;;;;;;;13.02;7.88;;;;;;;;;;4989260;28;20373;-75
2023/06/08 07:20:20;;;;;;;11.70;7.38;;;;;;;;;;4984986;28;20105;-76
2023/06/08 07:22:45;;;;;;;9.23;8.20;;;;;;;;;;4984974;28;20115;-76
2023/06/08 07:25:10;;;;;;;12.65;8.10;;;;;;;;;;4988737;28;20098;-75
2023/06/08 07:27:36;;;;;;;13.38;8.70;;;;;;;;;;4982977;28;20513;-77
2023/06/08 07:30:01;;;;;;;9.02;7.80;;;;;;;;;;4986681;28;20418;-74
2023/06/08 07:32:28;;;;;;;9.80;7.63;;;;;;;;;;4984978;28;20034;-74
2023/06/08 07:34:54;;;;;;;9.13;8.23;;;;;;;;;;4985204;28;20330;-74
2023/06/08 07:37:20;;;;;;;11.52;8.00;;;;;;;;;;4982028;28;20046;-75
2023/06/08 07:39:45;;;;;;;9.63;7.22;;;;;;;;;;4986503;28;20030;-75
2023/06/08 07:42:11;;;;;;;11.18;6.70;;;;;;;;;;4990350;28;20042;-75
2023/06/08 07:44:36;;;;;;;13.65;7.43;;;;;;;;;;4985080;28;20034;-75
2023/06/08 07:47:01;;;;;;;11.27;7.63;;;;;;;;;;4983430;28;20034;-74
2023/06/08 07:49:30;;;;;;;9.25;7.55;;;;;;;;;;4985414;28;20033;-74
2023/06/08 07:51:55;;;;;;;8.93;8.02;;;;;;;;;;4981961;28;20040;-75
2023/06/08 07:54:22;;;;;;;9.50;7.60;;;;;;;;;;4985039;28;20357;-75
2023/06/08 07:56:47;;;;;;;9.43;8.20;;;;;;;;;;4983841;28;20054;-73
2023/06/08 07:59:13;;;;;;;9.23;7.47;;;;;;;;;;4985573;28;20485;-73
2023/06/08 08:01:38;;;;;;;10.57;8.02;;;;;;;;;;4988029;28;20044;-74
2023/06/08 08:04:03;;;;;;;10.05;7.53;;;;;;;;;;5002793;28;20349;-74
2023/06/08 08:06:29;;;;;;;9.70;7.20;;;;;;;;;;4993222;28;20022;-76
2023/06/08 08:08:54;;;;;;;11.88;7.72;;;;;;;;;;5000669;28;20029;-75
2023/06/08 08:11:20;;;;;;;8.57;7.43;;;;;;;;;;5003340;28;20113;-75
2023/06/08 08:13:45;;;;;;;10.95;7.10;;;;;;;;;;4984004;28;20113;-75
2023/06/08 08:16:11;;;;;;;8.98;7.03;;;;;;;;;;4983189;28;20111;-77
2023/06/08 08:18:36;;;;;;;9.00;7.22;;;;;;;;;;4984531;28;20076;-75
2023/06/08 08:21:01;;;;;;;8.27;7.40;;;;;;;;;;4988300;28;20036;-76
2023/06/08 08:23:27;;;;;;;7.82;7.10;;;;;;;;;;4981874;28;20037;-76
2023/06/08 08:25:52;;;;;;;12.02;7.65;;;;;;;;;;4986200;28;20021;-76
2023/06/08 08:28:18;;;;;;;10.80;7.57;;;;;;;;;;4983244;28;20419;-77
2023/06/08 08:30:43;;;;;;;9.85;7.18;;;;;;;;;;4986070;28;20418;-76
2023/06/08 08:33:08;;;;;;;7.90;7.10;;;;;;;;;;4985056;28;20034;-74
2023/06/08 08:35:34;;;;;;;7.75;6.55;;;;;;;;;;4985086;28;20331;-74
2023/06/08 08:38:00;;;;;;;7.55;6.28;;;;;;;;;;4982166;28;20076;-75
2023/06/08 08:40:25;;;;;;;8.05;5.82;;;;;;;;;;4984731;28;20441;-75
2023/06/08 08:42:56;;;;;;;10.45;7.10;;;;;;;;;;4984088;28;20100;-74
2023/06/08 08:45:23;;;;;;;8.35;6.65;;;;;;;;;;4984268;28;20384;-76
2023/06/08 08:47:53;;;;;;;8.93;6.57;;;;;;;;;;4984263;28;20021;-76
2023/06/08 08:50:19;;;;;;;8.52;6.45;;;;;;;;;;4985647;28;20026;-77
2023/06/08 08:52:51;;;;;;;11.88;6.97;;;;;;;;;;4984905;28;20112;-74
2023/06/08 08:55:17;;;;;;;9.75;6.80;;;;;;;;;;4983947;28;20045;-75
2023/06/08 08:57:43;;;;;;;7.80;7.00;;;;;;;;;;5010390;28;20045;-73
2023/06/08 09:00:10;;;;;;;9.43;6.28;;;;;;;;;;4984282;28;20445;-77
2023/06/08 09:02:36;;;;;;;8.70;5.95;;;;;;;;;;4982557;28;20037;-73
2023/06/08 09:05:05;;;;;;;7.20;6.35;;;;;;;;;;5001689;28;20025;-76
2023/06/08 09:07:30;;;;;;;9.57;6.93;;;;;;;;;;5001317;28;20029;-73
2023/06/08 09:10:14;;;;;;;7.35;6.28;;;;;;;;;;5001224;28;20038;-75
2023/06/08 09:12:43;;;;;;;9.02;6.20;;;;;;;;;;4992504;28;20026;-77
2023/06/08 09:15:11;;;;;;;11.02;6.65;;;;;;;;;;4982441;28;20054;-77
2023/06/08 09:17:40;;;;;;;6.93;6.05;;;;;;;;;;4982496;28;20365;-74
2023/06/08 09:20:09;;;;;;;7.22;6.30;;;;;;;;;;4988528;28;20037;-76
2023/06/08 09:22:37;;;;;;;9.43;6.80;;;;;;;;;;4983569;28;20350;-77
2023/06/08 09:25:06;;;;;;;9.32;6.65;;;;;;;;;;5000300;28;20030;-75
2023/06/08 09:27:32;;;;;;;10.90;6.22;;;;;;;;;;5001758;28;20014;-77
2023/06/08 09:29:59;;;;;;;11.27;6.85;;;;;;;;;;4999914;28;20053;-76
2023/06/08 09:32:32;;;;;;;8.32;6.03;;;;;;;;;;4998942;28;20034;-76
2023/06/08 09:35:04;;;;;;;13.05;6.38;;;;;;;;;;5001167;28;20044;-76
2023/06/08 09:37:30;;;;;;;9.77;6.60;;;;;;;;;;5001020;28;20025;-75
2023/06/08 09:39:56;;;;;;;8.38;6.60;;;;;;;;;;5000641;28;20030;-77
2023/06/08 09:42:22;;;;;;;9.32;6.45;;;;;;;;;;5000704;28;20018;-75
2023/06/08 09:44:47;;;;;;;6.25;5.68;;;;;;;;;;5000585;28;20030;-74
2023/06/08 09:47:25;;;;;;;9.05;6.43;;;;;;;;;;5000978;28;20022;-76
2023/06/08 09:49:51;;;;;;;10.23;5.72;;;;;;;;;;5001927;28;20026;-77
2023/06/08 09:52:19;;;;;;;9.18;6.15;;;;;;;;;;5005901;28;20662;-75
2023/06/08 09:54:45;;;;;;;8.45;6.47;;;;;;;;;;5005690;28;20119;-76
2023/06/08 09:57:11;;;;;;;9.05;5.68;;;;;;;;;;5004762;28;20478;-76
2023/06/08 09:59:44;;;;;;;10.63;6.03;;;;;;;;;;5005865;28;20030;-77
2023/06/08 10:02:15;;;;;;;9.48;5.50;;;;;;;;;;5004665;28;20025;-75
2023/06/08 10:04:42;;;;;;;9.43;5.38;;;;;;;;;;5005161;28;20038;-75
2023/06/08 10:07:19;;;;;;;7.68;5.45;;;;;;;;;;5005083;28;20345;-75
2023/06/08 10:09:45;;;;;;;7.32;5.78;;;;;;;;;;5006013;28;20038;-77
2023/06/08 10:12:11;;;;;;;7.95;5.22;;;;;;;;;;5005667;28;20337;-76
2023/06/08 10:14:37;;;;;;;6.22;5.40;;;;;;;;;;5005352;28;20033;-75
2023/06/08 10:17:03;;;;;;;10.70;5.90;;;;;;;;;;5006051;28;20312;-75
2023/06/08 10:19:30;;;;;;;12.25;5.30;;;;;;;;;;5005800;28;20046;-75
2023/06/08 10:21:56;;;;;;;8.27;5.57;;;;;;;;;;5004599;28;20449;-76
2023/06/08 10:24:23;;;;;;;6.50;5.80;;;;;;;;;;5004972;28;20034;-76
2023/06/08 10:26:50;;;;;;;5.38;4.88;;;;;;;;;;5005305;28;20053;-76
2023/06/08 10:29:16;;;;;;;8.18;5.63;;;;;;;;;;5005112;28;20030;-76
2023/06/08 10:31:45;;;;;;;10.20;5.55;;;;;;;;;;5005386;28;20052;-75
2023/06/08 10:34:12;;;;;;;7.22;5.43;;;;;;;;;;5005743;28;20026;-75
2023/06/08 10:36:41;;;;;;;9.18;5.47;;;;;;;;;;5005390;28;20029;-75
2023/06/08 10:39:10;;;;;;;6.95;5.35;;;;;;;;;;5005466;28;20014;-76
2023/06/08 10:41:35;;;;;;;;;;;;;;;;;;5004807;28;20108;-75
2023/06/08 10:44:01;;;;;;;8.33;5.87;;;;;;;;;;5004687;28;19999;-76
2023/06/08 10:46:46;;;;;;;8.80;5.75;;;;;;;;;;5004739;28;20088;-74
2023/06/08 10:49:19;;;;;;;7.70;5.75;;;;;;;;;;5004561;28;20452;-77
2023/06/08 10:51:45;;;;;;;9.23;5.57;;;;;;;;;;5004882;28;20037;-75
2023/06/08 10:54:20;;;;;;;8.35;5.45;;;;;;;;;;5004920;28;20029;-74
2023/06/08 10:56:51;;;;;;;8.75;5.75;;;;;;;;;;5004514;28;20676;-75
2023/06/08 10:59:17;;;;;;;9.30;5.53;;;;;;;;;;5004479;28;20061;-75
2023/06/08 11:01:45;;;;;;;7.13;5.22;;;;;;;;;;5003797;28;20049;-75
2023/06/08 11:04:11;;;;;;;6.77;4.97;;;;;;;;;;5003900;28;20180;-78
2023/06/08 11:06:38;;;;;;;8.05;5.43;;;;;;;;;;4989708;28;20101;-74
2023/06/08 11:09:04;;;;;;;10.85;5.50;;;;;;;;;;5004100;28;20428;-74
2023/06/08 11:11:30;;;;;;;11.48;5.72;;;;;;;;;;5001633;28;20108;-76
2023/06/08 11:13:55;;;;;;;6.07;5.22;;;;;;;;;;5002153;28;20030;-75
2023/06/08 11:16:21;;;;;;;6.97;5.60;;;;;;;;;;5003643;28;20049;-77
2023/06/08 11:18:46;;;;;;;6.10;5.50;;;;;;;;;;5002156;28;20053;-76
2023/06/08 11:21:11;;;;;;;8.35;5.45;;;;;;;;;;5003362;28;20077;-78
2023/06/08 11:23:37;;;;;;;8.10;5.53;;;;;;;;;;5003868;28;20022;-74
2023/06/08 11:26:02;;;;;;;8.70;5.95;;;;;;;;;;5018694;28;20033;-75
2023/06/08 11:28:28;;;;;;;7.75;5.72;;;;;;;;;;5004531;28;20041;-75
2023/06/08 11:30:53;;;;;;;9.98;5.18;;;;;;;;;;5004567;28;20465;-76
2023/06/08 11:33:19;;;;;;;8.50;5.28;;;;;;;;;;5004519;28;20061;-75
2023/06/08 11:35:49;;;;;;;6.53;5.50;;;;;;;;;;5004889;28;20057;-75
2023/06/08 11:38:14;;;;;;;9.35;5.65;;;;;;;;;;5004672;28;20072;-75
2023/06/08 11:40:41;;;;;;;8.73;5.60;;;;;;;;;;5002955;28;20069;-76
2023/06/08 11:43:08;;;;;;;5.90;5.32;;;;;;;;;;5004252;28;20026;-75
2023/06/08 11:45:34;;;;;;;10.00;5.38;;;;;;;;;;5004017;28;20121;-75
2023/06/08 11:48:02;;;;;;;7.10;5.20;;;;;;;;;;5004005;28;20109;-74
2023/06/08 11:50:27;;;;;;;7.97;5.68;;;;;;;;;;5004010;28;20034;-76
2023/06/08 11:52:53;;;;;;;7.53;5.25;;;;;;;;;;5003535;28;20037;-75
2023/06/08 11:55:19;;;;;;;6.57;5.38;;;;;;;;;;5004333;28;20030;-74
2023/06/08 11:58:00;;;;;;;11.52;6.53;;;;;;;;;;5003975;28;20046;-76
2023/06/08 12:00:32;;;;;;;6.38;5.72;;;;;;;;;;5002954;28;20026;-75
2023/06/08 12:02:58;;;;;;;8.18;5.72;;;;;;;;;;5003198;28;20835;-74
2023/06/08 12:05:25;;;;;;;7.53;5.03;;;;;;;;;;5004127;28;20040;-76
2023/06/08 12:07:53;;;;;;;6.40;5.00;;;;;;;;;;5003111;28;20385;-75
2023/06/08 12:10:19;;;;;;;8.55;5.05;;;;;;;;;;5003020;28;20465;-75
2023/06/08 12:12:46;;;;;;;9.27;5.10;;;;;;;;;;5003293;28;20116;-75
2023/06/08 12:15:14;;;;;;;7.13;5.05;;;;;;;;;;5003449;28;20040;-75
2023/06/08 12:17:39;;;;;;;9.88;5.10;;;;;;;;;;5002869;28;20045;-77
2023/06/08 12:20:08;;;;;;;5.43;4.85;;;;;;;;;;5003609;28;20327;-76
2023/06/08 12:22:33;;;;;;;7.57;5.15;;;;;;;;;;5003778;28;20025;-76
2023/06/08 12:24:59;;;;;;;7.13;5.45;;;;;;;;;;5003717;28;20053;-75
2023/06/08 12:27:25;;;;;;;6.97;5.40;;;;;;;;;;5003061;28;20036;-75
2023/06/08 12:29:50;;;;;;;5.53;4.80;;;;;;;;;;5003230;28;20026;-77
2023/06/08 12:32:16;;;;;;;9.30;5.53;;;;;;;;;;5003459;28;20116;-75
2023/06/08 12:34:41;;;;;;;5.63;4.85;;;;;;;;;;5003936;28;20033;-76
2023/06/08 12:37:07;;;;;;;12.57;5.88;;;;;;;;;;5003361;28;20087;-75
2023/06/08 12:39:32;;;;;;;7.65;5.00;;;;;;;;;;5002984;28;20037;-75
2023/06/08 12:41:58;;;;;;;10.68;5.28;;;;;;;;;;5003164;28;20028;-74
2023/06/08 12:44:24;;;;;;;7.20;4.88;;;;;;;;;;5003377;28;20326;-74
2023/06/08 12:46:49;;;;;;;8.13;4.88;;;;;;;;;;5003045;28;20425;-75
2023/06/08 12:49:14;;;;;;;5.10;4.57;;;;;;;;;;5002471;28;20025;-76
2023/06/08 12:51:40;;;;;;;4.90;4.35;;;;;;;;;;4994260;28;20377;-75
2023/06/08 12:54:05;;;;;;;7.88;4.50;;;;;;;;;;4984914;28;20049;-76
2023/06/08 12:56:30;;;;;;;8.80;5.03;;;;;;;;;;4995170;28;20177;-76
2023/06/08 12:58:56;;;;;;;7.80;4.95;;;;;;;;;;5001575;28;20132;-75
2023/06/08 13:01:21;;;;;;;8.50;4.70;;;;;;;;;;5002792;28;20167;-75
2023/06/08 13:03:47;;;;;;;7.63;4.68;;;;;;;;;;5002243;28;20041;-75
2023/06/08 13:06:13;;;;;;;7.20;4.85;;;;;;;;;;5002620;28;20096;-76
2023/06/08 13:08:39;;;;;;;7.57;4.97;;;;;;;;;;5002734;28;20033;-76
2023/06/08 13:11:04;;;;;;;7.13;5.07;;;;;;;;;;5001611;28;20421;-77
2023/06/08 13:13:29;;;;;;;10.50;5.03;;;;;;;;;;5002541;28;20029;-77
2023/06/08 13:15:55;;;;;;;8.32;5.30;;;;;;;;;;5001293;28;20036;-76
2023/06/08 13:18:23;;;;;;;5.97;4.72;;;;;;;;;;5001594;28;20021;-76
2023/06/08 13:20:48;;;;;;;7.83;4.37;;;;;;;;;;5002299;28;20095;-75
2023/06/08 13:23:14;;;;;;;7.43;4.95;;;;;;;;;;5002134;28;20022;-76
2023/06/08 13:25:39;;;;;;;7.22;4.70;;;;;;;;;;4996443;28;20030;-75
2023/06/08 13:28:07;;;;;;;7.05;4.35;;;;;;;;;;4986659;28;21135;-76
2023/06/08 13:30:32;;;;;;;10.43;4.45;;;;;;;;;;4995403;28;20457;-76
2023/06/08 13:32:59;;;;;;;5.90;4.35;;;;;;;;;;5002019;28;20026;-75
2023/06/08 13:35:25;;;;;;;6.10;4.30;;;;;;;;;;5002227;28;20417;-74
2023/06/08 13:37:52;;;;;;;8.25;4.30;;;;;;;;;;5001680;28;20036;-74
2023/06/08 13:40:18;;;;;;;8.55;4.40;;;;;;;;;;4988718;28;20451;-75
2023/06/08 13:42:43;;;;;;;6.57;3.88;;;;;;;;;;4999797;28;20044;-75
2023/06/08 13:45:11;;;;;;;7.38;3.67;;;;;;;;;;4984336;28;20026;-78
2023/06/08 13:47:37;;;;;;;6.60;4.30;;;;;;;;;;4985106;28;20080;-74
2023/06/08 13:50:03;;;;;;;4.45;3.72;;;;;;;;;;4986914;28;20041;-76
2023/06/08 13:52:29;;;;;;;9.27;4.15;;;;;;;;;;4986888;28;20128;-76
2023/06/08 13:54:54;;;;;;;6.72;3.72;;;;;;;;;;4986801;28;20021;-75
2023/06/08 13:57:20;;;;;;;6.80;3.90;;;;;;;;;;4987718;28;20346;-77
2023/06/08 13:59:45;;;;;;;8.10;3.85;;;;;;;;;;4986483;28;20342;-76
2023/06/08 14:02:10;;;;;;;8.70;3.92;;;;;;;;;;4998735;28;20076;-76
2023/06/08 14:04:36;;;;;;;4.75;4.13;;;;;;;;;;4986670;28;20037;-76
2023/06/08 14:07:02;;;;;;;8.00;4.07;;;;;;;;;;4987241;28;20117;-75
2023/06/08 14:09:28;;;;;;;4.72;3.90;;;;;;;;;;4986334;28;20026;-77
2023/06/08 14:11:53;;;;;;;6.63;3.70;;;;;;;;;;4985804;28;20516;-76
2023/06/08 14:14:19;;;;;;;5.80;3.88;;;;;;;;;;4998170;28;20148;-75
2023/06/08 14:16:44;;;;;;;4.90;3.38;;;;;;;;;;4994709;28;20460;-77
2023/06/08 14:19:10;;;;;;;7.43;4.00;;;;;;;;;;4992599;28;20029;-79
2023/06/08 14:21:35;;;;;;;4.78;3.78;;;;;;;;;;4998141;28;20041;-76
2023/06/08 14:24:00;;;;;;;7.13;4.45;;;;;;;;;;4998640;28;20516;-75
2023/06/08 14:26:26;;;;;;;7.88;4.53;;;;;;;;;;5001121;28;20331;-76